This is the latest recevied weather packets stored in our database for station/object JQ3CCU-10. If no packets are shown the sender has not sent any weather packets the latest 10 day(s).
| Time | Temp. | Humidity | Pressure | Rain* | Wind** | Luminosity | Snow |
|---|---|---|---|---|---|---|---|
| 1777713855 | 25° C | 57% | - | - | 0 m/s | - | - |
| 1777712055 | 25° C | 57% | - | - | 0 m/s | - | - |
| 1777710255 | 25.56° C | 53% | - | - | 0 m/s | - | - |
| 1777708455 | 25.56° C | 53% | - | - | 0 m/s | - | - |
| 1777706655 | 25.56° C | 52% | - | - | 0 m/s | - | - |
| 1777704855 | 25.56° C | 52% | - | - | 0 m/s | - | - |
| 1777703055 | 25.56° C | 53% | - | - | 0 m/s | - | - |
| 1777701255 | 25.56° C | 53% | - | - | 0 m/s | - | - |
| 1777699455 | 25° C | 56% | - | - | 0 m/s | - | - |
| 1777697655 | 25° C | 56% | - | - | 0 m/s | - | - |
| 1777695855 | 24.44° C | 56% | - | - | 0 m/s | - | - |
| 1777694055 | 24.44° C | 56% | - | - | 0 m/s | - | - |
| 1777692255 | 24.44° C | 56% | - | - | 0 m/s | - | - |
| 1777690455 | 24.44° C | 56% | - | - | 0 m/s | - | - |
| 1777688655 | 25° C | 56% | - | - | 0 m/s | - | - |
| 1777686855 | 25° C | 56% | - | - | 0 m/s | - | - |
| 1777685055 | 28.89° C | 44% | - | - | 0 m/s | - | - |
| 1777683255 | 28.89° C | 44% | - | - | 0 m/s | - | - |
| 1777681455 | 31.67° C | 37% | - | - | 0 m/s | - | - |
| 1777679655 | 31.67° C | 37% | - | - | 0 m/s | - | - |
| 1777677855 | 29.44° C | 40% | - | - | 0 m/s | - | - |
| 1777676055 | 29.44° C | 40% | - | - | 0 m/s | - | - |
| 1777674256 | 21.67° C | 61% | - | - | 0 m/s | - | - |
| 1777672455 | 21.67° C | 61% | - | - | 0 m/s | - | - |
| 1777670655 | 17.22° C | 79% | - | - | 0 m/s | - | - |
* Rain since midnight (hover to see other rain measurements)
** Current wind speed in m/s (hover to see current wind gust speed)